Terminal Aerodrome Forecast
Issued by NWS

Home | Current Version | Previous Version | Text Only | Print | Product List | Glossary On
Versions: 1 2 3 4 5 6 7 8 9 10 11 12 13 14 15 16 17 18 19 20 21 22 23 24 25 26 27 28 29 30
000
FTUS42 KMLB 162346
TAFTIX
TAF
KTIX 162346Z 1700/1724 VRB05KT P6SM SCT025 SCT060 BKN100
     FM171400 12010KT P6SM VCSH SCT030 BKN100
      TEMPO 1717/1720 3SM TSRA BKN030CB
     AMD NOT SKED 1701/1711=

USA.gov is the U.S. government's official web portal to all federal, state and local government web resources and services.